createdAt,value
2023-04-16T00:00:53.878Z,24.63
2023-04-16T00:03:24.452Z,22.57
2023-04-16T00:06:04.118Z,24.30
2023-04-16T00:08:35.900Z,24.70
2023-04-16T00:11:04.552Z,25.53
2023-04-16T00:13:35.653Z,26.70
2023-04-16T00:16:03.884Z,26.17
2023-04-16T00:18:32.234Z,26.83
2023-04-16T00:21:00.769Z,27.00
2023-04-16T00:23:31.550Z,26.20
2023-04-16T00:26:01.169Z,26.27
2023-04-16T00:28:29.397Z,25.90
2023-04-16T00:30:57.797Z,26.70
2023-04-16T00:33:25.973Z,26.77
2023-04-16T00:35:59.931Z,24.97
2023-04-16T00:38:30.837Z,25.53
2023-04-16T00:41:04.628Z,26.57
2023-04-16T00:43:40.547Z,25.00
2023-04-16T00:46:10.227Z,24.27
2023-04-16T00:48:43.031Z,24.70
2023-04-16T00:51:14.966Z,24.50
2023-04-16T00:53:44.216Z,25.70
2023-04-16T00:56:16.931Z,25.83
2023-04-16T00:58:46.117Z,26.87
2023-04-16T01:01:18.124Z,28.57
2023-04-16T01:03:47.982Z,26.80
2023-04-16T01:06:21.586Z,25.60
2023-04-16T01:08:50.451Z,26.40
2023-04-16T01:11:24.638Z,27.33
2023-04-16T01:13:53.190Z,26.03
2023-04-16T01:16:27.124Z,30.33
2023-04-16T01:18:55.944Z,25.60
2023-04-16T01:21:27.767Z,25.07
2023-04-16T01:23:56.893Z,26.13
2023-04-16T01:26:29.246Z,25.20
2023-04-16T01:29:00.222Z,25.67
2023-04-16T01:31:30.646Z,25.30
2023-04-16T01:34:04.954Z,26.00
2023-04-16T01:36:40.711Z,25.03
2023-04-16T01:39:11.703Z,27.40
2023-04-16T01:41:47.023Z,28.43
2023-04-16T01:44:16.272Z,28.43
2023-04-16T01:46:46.319Z,28.70
2023-04-16T01:49:15.311Z,28.33
2023-04-16T01:51:45.430Z,27.30
2023-04-16T01:54:16.280Z,25.77
2023-04-16T01:56:45.125Z,22.67
2023-04-16T01:59:16.910Z,25.47
2023-04-16T02:01:45.579Z,26.07
2023-04-16T02:04:18.981Z,25.97
2023-04-16T02:06:49.084Z,26.83
2023-04-16T02:09:20.653Z,26.03
2023-04-16T02:11:49.694Z,26.33
2023-04-16T02:14:18.141Z,25.20
2023-04-16T02:16:46.779Z,26.70
2023-04-16T02:19:23.806Z,27.47
2023-04-16T02:21:54.865Z,26.03
2023-04-16T02:24:23.336Z,26.87
2023-04-16T02:26:54.094Z,25.80
2023-04-16T02:29:22.668Z,25.97
2023-04-16T02:32:00.725Z,24.93
2023-04-16T02:34:34.705Z,26.87
2023-04-16T02:37:04.844Z,25.20
2023-04-16T02:39:33.101Z,25.13
2023-04-16T02:42:07.521Z,25.60
2023-04-16T02:44:36.923Z,26.07
2023-04-16T02:47:05.417Z,25.93
2023-04-16T02:49:37.263Z,26.70
2023-04-16T02:52:07.537Z,26.90
2023-04-16T02:54:36.476Z,25.87
2023-04-16T02:57:06.363Z,26.87
2023-04-16T02:59:39.528Z,26.30
2023-04-16T03:02:08.448Z,25.67
2023-04-16T03:04:39.534Z,25.47
2023-04-16T03:07:09.919Z,26.67
2023-04-16T03:09:43.253Z,24.63
2023-04-16T03:12:12.643Z,26.57
2023-04-16T03:14:42.954Z,26.50
2023-04-16T03:17:11.810Z,27.10
2023-04-16T03:19:40.402Z,27.77
2023-04-16T03:22:10.315Z,25.83
2023-04-16T03:24:40.380Z,25.27
2023-04-16T03:27:12.262Z,26.53
2023-04-16T03:29:50.247Z,27.03
2023-04-16T03:32:19.548Z,26.57
2023-04-16T03:34:53.945Z,26.57
2023-04-16T03:37:24.230Z,24.67
2023-04-16T03:39:53.055Z,24.83
2023-04-16T03:42:21.585Z,25.43
2023-04-16T03:44:49.860Z,27.40
2023-04-16T03:47:19.652Z,25.13
2023-04-16T03:49:49.291Z,24.70
2023-04-16T03:52:21.401Z,25.37
2023-04-16T03:54:53.966Z,25.27
2023-04-16T03:57:30.021Z,24.63
2023-04-16T04:00:04.237Z,24.20
2023-04-16T04:02:43.540Z,24.20
2023-04-16T04:05:20.465Z,26.57
2023-04-16T04:07:49.758Z,26.23
2023-04-16T04:10:21.770Z,25.70
2023-04-16T04:12:54.202Z,23.67
2023-04-16T04:15:23.182Z,24.23
2023-04-16T04:17:54.721Z,24.10
2023-04-16T04:20:23.418Z,25.50
2023-04-16T04:22:56.893Z,25.63
2023-04-16T04:25:28.723Z,24.67
2023-04-16T04:28:02.686Z,25.80
2023-04-16T04:30:31.287Z,24.63
2023-04-16T04:32:59.748Z,25.70
2023-04-16T04:35:28.247Z,25.60
2023-04-16T04:37:56.707Z,22.07
2023-04-16T04:40:25.096Z,24.33
2023-04-16T04:42:55.608Z,23.77
2023-04-16T04:45:25.482Z,25.50
2023-04-16T04:47:55.107Z,24.17
2023-04-16T04:50:23.460Z,25.37
2023-04-16T04:52:51.573Z,24.50
2023-04-16T04:55:26.186Z,25.53
2023-04-16T04:57:59.112Z,23.40
2023-04-16T05:00:28.269Z,23.57
2023-04-16T05:03:03.521Z,24.93
2023-04-16T05:05:32.417Z,25.80
2023-04-16T05:08:04.188Z,24.97
2023-04-16T05:10:32.892Z,23.67
2023-04-16T05:13:03.135Z,23.93
2023-04-16T05:15:31.665Z,24.03
2023-04-16T05:18:03.899Z,24.10
2023-04-16T05:20:33.023Z,25.47
2023-04-16T05:23:09.030Z,24.10
2023-04-16T05:25:37.722Z,22.00
2023-04-16T05:28:14.716Z,24.23
2023-04-16T05:30:43.596Z,22.40
2023-04-16T05:33:12.739Z,24.83
2023-04-16T05:35:42.565Z,24.33
2023-04-16T05:38:11.530Z,23.37
2023-04-16T05:40:40.000Z,23.37
2023-04-16T05:43:08.874Z,22.73
2023-04-16T05:45:44.582Z,23.93
2023-04-16T05:48:18.901Z,23.83
2023-04-16T05:50:48.518Z,25.13
2023-04-16T05:53:28.399Z,23.40
2023-04-16T05:55:57.933Z,24.60
2023-04-16T05:58:28.903Z,23.93
2023-04-16T06:01:03.917Z,24.90
2023-04-16T06:03:35.061Z,23.57
2023-04-16T06:06:04.141Z,23.63
2023-04-16T06:08:32.621Z,24.17
2023-04-16T06:11:07.105Z,24.07
2023-04-16T06:13:36.038Z,22.70
2023-04-16T06:16:06.383Z,24.27
2023-04-16T06:18:34.632Z,22.90
2023-04-16T06:21:03.037Z,23.73
2023-04-16T06:23:31.232Z,23.00
2023-04-16T06:26:00.042Z,24.10
2023-04-16T06:28:28.208Z,23.43
2023-04-16T06:30:56.410Z,26.13
2023-04-16T06:33:28.474Z,24.93
2023-04-16T06:35:56.763Z,25.80
2023-04-16T06:38:25.136Z,26.77
2023-04-16T06:40:53.347Z,28.00
2023-04-16T06:43:21.634Z,24.07
2023-04-16T06:45:51.267Z,25.40
2023-04-16T06:48:19.420Z,25.03
2023-04-16T06:50:49.003Z,24.37
2023-04-16T06:53:17.169Z,24.83
2023-04-16T06:55:45.345Z,24.93
2023-04-16T06:58:16.422Z,24.97
2023-04-16T07:00:45.770Z,24.97
2023-04-16T07:03:14.716Z,24.80
2023-04-16T07:05:46.130Z,24.00
2023-04-16T07:08:20.667Z,24.80
2023-04-16T07:10:49.585Z,25.50
2023-04-16T07:13:20.898Z,25.70
2023-04-16T07:15:49.588Z,26.37
2023-04-16T07:18:21.824Z,22.83
2023-04-16T07:20:59.330Z,26.47
2023-04-16T07:23:32.770Z,27.00
2023-04-16T07:26:15.978Z,26.90
2023-04-16T07:28:44.734Z,27.40
2023-04-16T07:31:19.026Z,28.23
2023-04-16T07:37:14.223Z,26.53
2023-04-16T07:40:01.310Z,27.30
2023-04-16T07:42:37.659Z,28.10
2023-04-16T07:45:08.925Z,27.17
2023-04-16T07:47:47.057Z,26.40
2023-04-16T07:50:23.341Z,27.93
2023-04-16T07:53:00.847Z,28.63
2023-04-16T07:55:54.472Z,28.07
2023-04-16T07:58:26.107Z,26.73
2023-04-16T08:00:58.387Z,28.83
2023-04-16T08:03:58.481Z,28.53
2023-04-16T08:06:31.681Z,28.77
2023-04-16T08:09:05.347Z,28.50
2023-04-16T08:11:36.245Z,30.47
2023-04-16T08:14:10.623Z,28.63
2023-04-16T08:16:40.595Z,30.20
2023-04-16T08:19:09.152Z,30.07
2023-04-16T08:21:37.669Z,29.10
2023-04-16T08:24:06.205Z,30.53
2023-04-16T08:26:36.237Z,29.90
2023-04-16T08:29:04.498Z,30.57
2023-04-16T08:31:32.999Z,30.67
2023-04-16T08:34:02.172Z,30.23
2023-04-16T08:36:33.316Z,31.37
2023-04-16T08:39:12.333Z,31.70
2023-04-16T08:44:54.710Z,30.83
2023-04-16T08:47:55.411Z,32.20
2023-04-16T08:50:35.724Z,28.83
2023-04-16T08:53:23.521Z,29.50
2023-04-16T08:56:12.816Z,30.73
2023-04-16T08:58:48.266Z,29.50
2023-04-16T09:01:31.041Z,27.10
2023-04-16T09:04:05.918Z,30.23
2023-04-16T09:06:39.705Z,26.80
2023-04-16T09:09:14.916Z,27.23
2023-04-16T09:11:46.972Z,26.40
2023-04-16T09:14:36.376Z,29.10
2023-04-16T09:17:21.366Z,29.53
2023-04-16T09:23:26.614Z,28.17
2023-04-16T09:26:21.172Z,31.87
2023-04-16T09:33:30.003Z,30.30
2023-04-16T09:35:58.941Z,31.00
2023-04-16T09:38:28.681Z,29.73
2023-04-16T09:41:08.526Z,31.80
2023-04-16T09:43:36.931Z,30.47
2023-04-16T09:46:08.262Z,29.87
2023-04-16T09:48:38.849Z,31.10
2023-04-16T09:51:08.178Z,28.87
2023-04-16T09:53:40.077Z,29.60
2023-04-16T09:56:10.238Z,29.60
2023-04-16T09:58:58.388Z,29.73
2023-04-16T10:01:33.341Z,31.90
2023-04-16T10:04:24.530Z,30.37
2023-04-16T10:07:45.235Z,28.20
2023-04-16T10:10:50.667Z,27.50
2023-04-16T10:13:51.350Z,28.73
2023-04-16T10:17:10.644Z,27.27
2023-04-16T10:20:58.338Z,27.13
2023-04-16T10:27:01.619Z,26.70
2023-04-16T10:35:41.890Z,28.43
2023-04-16T10:42:17.769Z,28.70
2023-04-16T10:44:50.882Z,26.80
2023-04-16T10:47:30.462Z,26.60
2023-04-16T10:50:00.852Z,26.70
2023-04-16T10:52:35.459Z,26.20
2023-04-16T10:55:14.314Z,25.37
2023-04-16T10:57:58.165Z,25.20
2023-04-16T11:01:00.475Z,25.40
2023-04-16T11:03:59.120Z,25.17
2023-04-16T11:06:39.725Z,27.37
2023-04-16T11:09:30.136Z,24.20
2023-04-16T11:11:59.247Z,24.80
2023-04-16T11:14:33.712Z,25.40
2023-04-16T11:17:10.619Z,24.50
2023-04-16T11:19:55.269Z,25.50
2023-04-16T11:22:27.866Z,24.70
2023-04-16T11:26:02.269Z,22.50
2023-04-16T11:28:39.467Z,25.13
2023-04-16T11:31:26.291Z,23.63
2023-04-16T11:34:23.726Z,23.37
2023-04-16T11:37:02.546Z,23.00
2023-04-16T11:39:33.585Z,21.93
2023-04-16T11:42:16.888Z,23.40
2023-04-16T11:45:11.425Z,21.80
2023-04-16T11:48:15.888Z,22.67
2023-04-16T11:54:04.041Z,23.00
2023-04-16T11:57:05.187Z,24.80
2023-04-16T12:55:14.491Z,22.70
2023-04-16T13:57:35.112Z,23.43
2023-04-16T14:03:46.348Z,21.80
2023-04-16T14:06:20.714Z,22.03
2023-04-16T14:09:41.076Z,21.97
2023-04-16T14:12:24.177Z,22.50
2023-04-16T14:15:09.960Z,22.90
2023-04-16T14:17:47.796Z,21.90
2023-04-16T14:20:17.874Z,22.37
2023-04-16T14:25:56.483Z,21.80
2023-04-16T14:28:32.968Z,22.37
2023-04-16T14:37:49.516Z,22.50
2023-04-16T14:40:17.985Z,21.80
2023-04-16T14:42:48.245Z,22.00
2023-04-16T14:45:44.105Z,23.17
2023-04-16T14:48:40.631Z,21.43
2023-04-16T14:51:19.063Z,21.70
2023-04-16T14:53:49.560Z,22.30
2023-04-16T14:56:18.199Z,21.90
2023-04-16T14:58:52.832Z,20.33
2023-04-16T15:01:26.054Z,21.80
2023-04-16T15:08:30.564Z,20.90
2023-04-16T15:20:07.421Z,18.70
2023-04-16T15:23:25.391Z,18.87
2023-04-16T15:43:29.392Z,18.90
2023-04-16T15:45:58.149Z,19.70
2023-04-16T15:48:29.258Z,21.87
2023-04-16T15:50:58.093Z,19.73
2023-04-16T15:53:26.804Z,18.53
2023-04-16T15:56:00.282Z,19.47
2023-04-16T15:58:40.305Z,18.37
2023-04-16T16:01:41.940Z,18.70
2023-04-16T16:51:03.618Z,18.83
2023-04-16T17:14:52.186Z,18.87
2023-04-16T17:38:59.965Z,19.03
2023-04-16T17:41:28.350Z,20.37
2023-04-16T17:44:02.567Z,20.40
2023-04-16T17:46:31.512Z,20.10
2023-04-16T17:49:02.582Z,21.93
2023-04-16T17:51:31.181Z,22.37
2023-04-16T17:57:12.024Z,24.77
2023-04-16T18:03:51.062Z,23.83
2023-04-16T18:06:22.714Z,22.23
2023-04-16T18:08:51.225Z,22.67
2023-04-16T18:14:13.642Z,24.50
2023-04-16T18:16:42.170Z,25.90
2023-04-16T18:19:12.644Z,24.60
2023-04-16T18:21:45.378Z,27.00
2023-04-16T18:24:37.870Z,28.37
2023-04-16T18:31:10.106Z,28.03
2023-04-16T18:38:25.505Z,27.43
2023-04-16T18:41:22.576Z,22.67
2023-04-16T18:52:30.455Z,21.37
2023-04-16T18:58:01.723Z,21.20
2023-04-16T19:00:35.580Z,21.00
2023-04-16T19:16:14.064Z,20.20
2023-04-16T19:18:56.334Z,21.33
2023-04-16T19:32:34.380Z,20.97
2023-04-16T19:36:31.914Z,20.30
2023-04-16T19:40:09.251Z,19.00
2023-04-16T19:43:33.810Z,20.90
2023-04-16T19:46:07.809Z,20.00
2023-04-16T19:48:36.572Z,20.73
2023-04-16T19:51:06.784Z,20.17
2023-04-16T19:54:04.065Z,20.30
2023-04-16T19:56:42.822Z,18.40
2023-04-16T19:59:14.075Z,18.90
2023-04-16T20:01:43.826Z,20.77
2023-04-16T20:04:18.599Z,20.37
2023-04-16T20:06:47.376Z,20.47
2023-04-16T20:09:55.387Z,20.77
2023-04-16T20:12:37.904Z,19.73
2023-04-16T20:15:15.184Z,19.77
2023-04-16T20:22:11.561Z,20.93
2023-04-16T20:32:13.510Z,21.17
2023-04-16T20:36:29.153Z,20.33
2023-04-16T20:39:20.182Z,21.17
2023-04-16T20:42:13.176Z,20.73
2023-04-16T20:44:54.199Z,20.90
2023-04-16T20:56:30.453Z,21.23
2023-04-16T20:59:58.252Z,21.40
2023-04-16T21:03:43.639Z,21.53
2023-04-16T21:09:46.631Z,22.37
2023-04-16T21:32:37.703Z,22.13
2023-04-16T21:36:20.628Z,21.93
2023-04-16T21:39:40.955Z,22.20
2023-04-16T21:46:54.012Z,23.50
2023-04-16T21:49:31.173Z,23.73
2023-04-16T21:52:03.865Z,23.80
2023-04-16T21:54:44.515Z,23.70
2023-04-16T22:01:11.470Z,25.20
2023-04-16T22:04:31.246Z,24.80
2023-04-16T22:10:34.170Z,22.93
2023-04-16T22:13:35.530Z,23.97
2023-04-16T22:16:25.154Z,22.10
2023-04-16T22:19:27.409Z,24.73
2023-04-16T22:22:09.611Z,23.53
2023-04-16T22:24:49.614Z,23.17
2023-04-16T22:34:52.329Z,24.10
2023-04-16T22:38:02.294Z,24.30
2023-04-16T22:40:32.146Z,23.80
2023-04-16T22:43:00.431Z,24.50
2023-04-16T22:45:28.674Z,26.10
2023-04-16T22:47:56.909Z,25.53
2023-04-16T22:50:25.158Z,24.60
2023-04-16T22:52:54.790Z,25.37
2023-04-16T22:55:23.466Z,25.03
2023-04-16T22:57:51.639Z,25.67
2023-04-16T23:03:34.411Z,23.73
2023-04-16T23:06:13.735Z,25.00
2023-04-16T23:09:15.134Z,24.30
2023-04-16T23:12:50.942Z,23.10
2023-04-16T23:18:55.834Z,23.80
2023-04-16T23:21:30.864Z,24.17
2023-04-16T23:48:29.783Z,23.30
